sensor_id;sensor_type;location;lat;lon;timestamp;P1;durP1;ratioP1;P2;durP2;ratioP2
18720;SDS011;9489;50.948;3.114;2023-07-02T00:00:28;38.80;;;25.58;;
18720;SDS011;9489;50.948;3.114;2023-07-02T00:02:53;41.35;;;27.83;;
18720;SDS011;9489;50.948;3.114;2023-07-02T00:05:19;45.67;;;27.92;;
18720;SDS011;9489;50.948;3.114;2023-07-02T00:07:45;44.97;;;28.63;;
18720;SDS011;9489;50.948;3.114;2023-07-02T00:10:10;45.10;;;28.20;;
18720;SDS011;9489;50.948;3.114;2023-07-02T00:12:36;37.38;;;27.30;;
18720;SDS011;9489;50.948;3.114;2023-07-02T00:15:02;40.60;;;27.23;;
18720;SDS011;9489;50.948;3.114;2023-07-02T00:17:28;46.08;;;28.98;;
18720;SDS011;9489;50.948;3.114;2023-07-02T00:19:54;41.53;;;28.38;;
18720;SDS011;9489;50.948;3.114;2023-07-02T00:22:22;40.45;;;27.13;;
18720;SDS011;9489;50.948;3.114;2023-07-02T00:24:47;40.30;;;28.08;;
18720;SDS011;9489;50.948;3.114;2023-07-02T00:27:15;39.90;;;27.92;;
18720;SDS011;9489;50.948;3.114;2023-07-02T00:29:41;42.55;;;27.60;;
18720;SDS011;9489;50.948;3.114;2023-07-02T00:32:06;38.10;;;26.77;;
18720;SDS011;9489;50.948;3.114;2023-07-02T00:34:32;39.80;;;26.73;;
18720;SDS011;9489;50.948;3.114;2023-07-02T00:36:57;44.70;;;28.60;;
18720;SDS011;9489;50.948;3.114;2023-07-02T00:39:23;39.72;;;26.10;;
18720;SDS011;9489;50.948;3.114;2023-07-02T00:41:49;44.63;;;28.50;;
18720;SDS011;9489;50.948;3.114;2023-07-02T00:44:14;43.22;;;26.95;;
18720;SDS011;9489;50.948;3.114;2023-07-02T00:46:40;42.75;;;27.52;;
18720;SDS011;9489;50.948;3.114;2023-07-02T00:49:06;43.38;;;28.50;;
18720;SDS011;9489;50.948;3.114;2023-07-02T00:51:34;41.45;;;26.65;;
18720;SDS011;9489;50.948;3.114;2023-07-02T00:54:00;41.53;;;27.00;;
18720;SDS011;9489;50.948;3.114;2023-07-02T00:56:26;44.00;;;27.92;;
18720;SDS011;9489;50.948;3.114;2023-07-02T00:58:55;41.17;;;27.10;;
18720;SDS011;9489;50.948;3.114;2023-07-02T01:01:23;47.45;;;28.58;;
18720;SDS011;9489;50.948;3.114;2023-07-02T01:06:27;44.92;;;28.33;;
18720;SDS011;9489;50.948;3.114;2023-07-02T01:08:55;46.20;;;29.20;;
18720;SDS011;9489;50.948;3.114;2023-07-02T01:11:23;40.30;;;27.17;;
18720;SDS011;9489;50.948;3.114;2023-07-02T01:14:02;43.78;;;27.55;;
18720;SDS011;9489;50.948;3.114;2023-07-02T01:16:31;40.10;;;27.65;;
18720;SDS011;9489;50.948;3.114;2023-07-02T01:18:59;43.72;;;28.52;;
18720;SDS011;9489;50.948;3.114;2023-07-02T01:21:30;39.78;;;26.52;;
18720;SDS011;9489;50.948;3.114;2023-07-02T01:23:57;37.60;;;27.63;;
18720;SDS011;9489;50.948;3.114;2023-07-02T01:26:27;45.13;;;27.60;;
18720;SDS011;9489;50.948;3.114;2023-07-02T01:28:54;40.60;;;27.77;;
18720;SDS011;9489;50.948;3.114;2023-07-02T01:31:20;45.40;;;28.15;;
18720;SDS011;9489;50.948;3.114;2023-07-02T01:33:50;43.13;;;28.27;;
18720;SDS011;9489;50.948;3.114;2023-07-02T01:36:16;41.20;;;27.58;;
18720;SDS011;9489;50.948;3.114;2023-07-02T01:38:41;43.28;;;27.98;;
18720;SDS011;9489;50.948;3.114;2023-07-02T01:41:07;40.28;;;28.55;;
18720;SDS011;9489;50.948;3.114;2023-07-02T01:43:33;41.35;;;29.50;;
18720;SDS011;9489;50.948;3.114;2023-07-02T01:45:58;46.95;;;30.13;;
18720;SDS011;9489;50.948;3.114;2023-07-02T01:48:24;47.35;;;29.98;;
18720;SDS011;9489;50.948;3.114;2023-07-02T01:50:50;48.47;;;29.48;;
18720;SDS011;9489;50.948;3.114;2023-07-02T01:53:15;39.95;;;28.10;;
18720;SDS011;9489;50.948;3.114;2023-07-02T01:55:41;43.45;;;31.63;;
18720;SDS011;9489;50.948;3.114;2023-07-02T01:58:07;45.35;;;30.13;;
18720;SDS011;9489;50.948;3.114;2023-07-02T02:00:32;46.58;;;29.88;;
18720;SDS011;9489;50.948;3.114;2023-07-02T02:02:58;46.47;;;30.90;;
18720;SDS011;9489;50.948;3.114;2023-07-02T02:05:23;43.10;;;29.65;;
18720;SDS011;9489;50.948;3.114;2023-07-02T02:07:49;45.80;;;29.65;;
18720;SDS011;9489;50.948;3.114;2023-07-02T02:10:15;46.45;;;31.15;;
18720;SDS011;9489;50.948;3.114;2023-07-02T02:12:40;48.10;;;29.48;;
18720;SDS011;9489;50.948;3.114;2023-07-02T02:15:06;47.00;;;30.45;;
18720;SDS011;9489;50.948;3.114;2023-07-02T02:17:32;47.88;;;31.48;;
18720;SDS011;9489;50.948;3.114;2023-07-02T02:19:58;44.65;;;29.60;;
18720;SDS011;9489;50.948;3.114;2023-07-02T02:22:24;45.00;;;29.17;;
18720;SDS011;9489;50.948;3.114;2023-07-02T02:24:50;44.70;;;30.73;;
18720;SDS011;9489;50.948;3.114;2023-07-02T02:27:15;40.17;;;29.80;;
18720;SDS011;9489;50.948;3.114;2023-07-02T02:29:41;46.08;;;29.38;;
18720;SDS011;9489;50.948;3.114;2023-07-02T02:32:06;43.55;;;30.45;;
18720;SDS011;9489;50.948;3.114;2023-07-02T02:34:32;47.95;;;30.27;;
18720;SDS011;9489;50.948;3.114;2023-07-02T02:36:58;42.30;;;29.98;;
18720;SDS011;9489;50.948;3.114;2023-07-02T02:39:23;40.25;;;26.95;;
18720;SDS011;9489;50.948;3.114;2023-07-02T02:41:49;43.92;;;28.58;;
18720;SDS011;9489;50.948;3.114;2023-07-02T02:44:14;44.80;;;30.13;;
18720;SDS011;9489;50.948;3.114;2023-07-02T02:46:40;48.72;;;30.38;;
18720;SDS011;9489;50.948;3.114;2023-07-02T02:49:06;46.80;;;30.00;;
18720;SDS011;9489;50.948;3.114;2023-07-02T02:51:31;41.03;;;28.15;;
18720;SDS011;9489;50.948;3.114;2023-07-02T02:53:57;40.60;;;28.55;;
18720;SDS011;9489;50.948;3.114;2023-07-02T02:56:22;43.38;;;29.48;;
18720;SDS011;9489;50.948;3.114;2023-07-02T02:58:49;45.85;;;29.60;;
18720;SDS011;9489;50.948;3.114;2023-07-02T03:01:14;38.58;;;29.23;;
18720;SDS011;9489;50.948;3.114;2023-07-02T03:03:40;44.33;;;27.70;;
18720;SDS011;9489;50.948;3.114;2023-07-02T03:06:13;38.90;;;28.02;;
18720;SDS011;9489;50.948;3.114;2023-07-02T03:08:39;37.88;;;26.77;;
18720;SDS011;9489;50.948;3.114;2023-07-02T03:11:05;39.38;;;27.77;;
18720;SDS011;9489;50.948;3.114;2023-07-02T03:13:31;40.92;;;28.77;;
18720;SDS011;9489;50.948;3.114;2023-07-02T03:15:56;37.00;;;27.30;;
18720;SDS011;9489;50.948;3.114;2023-07-02T03:18:22;40.92;;;28.02;;
18720;SDS011;9489;50.948;3.114;2023-07-02T03:20:48;38.25;;;25.73;;
18720;SDS011;9489;50.948;3.114;2023-07-02T03:23:13;40.75;;;26.17;;
18720;SDS011;9489;50.948;3.114;2023-07-02T03:25:39;32.97;;;25.80;;
18720;SDS011;9489;50.948;3.114;2023-07-02T03:28:04;36.38;;;25.63;;
18720;SDS011;9489;50.948;3.114;2023-07-02T03:30:30;40.97;;;26.58;;
18720;SDS011;9489;50.948;3.114;2023-07-02T03:32:56;37.17;;;23.10;;
18720;SDS011;9489;50.948;3.114;2023-07-02T03:35:22;38.13;;;25.27;;
18720;SDS011;9489;50.948;3.114;2023-07-02T03:37:48;33.33;;;23.40;;
18720;SDS011;9489;50.948;3.114;2023-07-02T03:40:13;32.58;;;24.45;;
18720;SDS011;9489;50.948;3.114;2023-07-02T03:42:39;35.10;;;24.13;;
18720;SDS011;9489;50.948;3.114;2023-07-02T03:45:05;32.20;;;23.77;;
18720;SDS011;9489;50.948;3.114;2023-07-02T03:47:30;30.83;;;22.50;;
18720;SDS011;9489;50.948;3.114;2023-07-02T03:49:56;30.70;;;21.70;;
18720;SDS011;9489;50.948;3.114;2023-07-02T03:52:22;30.08;;;21.17;;
18720;SDS011;9489;50.948;3.114;2023-07-02T03:54:49;31.38;;;20.60;;
18720;SDS011;9489;50.948;3.114;2023-07-02T03:57:15;26.58;;;20.45;;
18720;SDS011;9489;50.948;3.114;2023-07-02T03:59:40;31.20;;;19.10;;
18720;SDS011;9489;50.948;3.114;2023-07-02T04:02:06;31.23;;;21.00;;
18720;SDS011;9489;50.948;3.114;2023-07-02T04:04:32;31.13;;;20.48;;
18720;SDS011;9489;50.948;3.114;2023-07-02T04:06:57;26.90;;;18.83;;
18720;SDS011;9489;50.948;3.114;2023-07-02T04:09:23;29.23;;;19.48;;
18720;SDS011;9489;50.948;3.114;2023-07-02T04:11:48;26.55;;;19.17;;
18720;SDS011;9489;50.948;3.114;2023-07-02T04:14:14;27.45;;;17.65;;
18720;SDS011;9489;50.948;3.114;2023-07-02T04:16:39;26.75;;;17.73;;
18720;SDS011;9489;50.948;3.114;2023-07-02T04:19:05;28.25;;;17.75;;
18720;SDS011;9489;50.948;3.114;2023-07-02T04:21:31;27.35;;;18.42;;
18720;SDS011;9489;50.948;3.114;2023-07-02T04:23:57;26.25;;;18.35;;
18720;SDS011;9489;50.948;3.114;2023-07-02T04:26:22;26.45;;;18.40;;
18720;SDS011;9489;50.948;3.114;2023-07-02T04:28:51;27.35;;;19.15;;
18720;SDS011;9489;50.948;3.114;2023-07-02T04:31:18;26.30;;;19.23;;
18720;SDS011;9489;50.948;3.114;2023-07-02T04:33:44;27.52;;;18.73;;
18720;SDS011;9489;50.948;3.114;2023-07-02T04:36:09;26.40;;;17.63;;
18720;SDS011;9489;50.948;3.114;2023-07-02T04:38:35;26.67;;;19.10;;
18720;SDS011;9489;50.948;3.114;2023-07-02T04:41:01;33.00;;;18.90;;
18720;SDS011;9489;50.948;3.114;2023-07-02T04:43:32;27.77;;;19.75;;
18720;SDS011;9489;50.948;3.114;2023-07-02T04:45:58;30.13;;;20.77;;
18720;SDS011;9489;50.948;3.114;2023-07-02T04:48:24;28.52;;;19.73;;
18720;SDS011;9489;50.948;3.114;2023-07-02T04:50:50;26.95;;;20.20;;
18720;SDS011;9489;50.948;3.114;2023-07-02T04:53:16;30.67;;;19.85;;
18720;SDS011;9489;50.948;3.114;2023-07-02T04:55:41;28.77;;;19.63;;
18720;SDS011;9489;50.948;3.114;2023-07-02T04:58:08;27.00;;;19.75;;
18720;SDS011;9489;50.948;3.114;2023-07-02T05:00:34;28.98;;;19.33;;
18720;SDS011;9489;50.948;3.114;2023-07-02T05:02:59;27.90;;;20.30;;
18720;SDS011;9489;50.948;3.114;2023-07-02T05:05:25;29.08;;;21.58;;
18720;SDS011;9489;50.948;3.114;2023-07-02T05:07:50;27.38;;;20.63;;
18720;SDS011;9489;50.948;3.114;2023-07-02T05:10:16;31.23;;;21.20;;
18720;SDS011;9489;50.948;3.114;2023-07-02T05:12:42;25.30;;;19.30;;
18720;SDS011;9489;50.948;3.114;2023-07-02T05:15:07;29.45;;;18.90;;
18720;SDS011;9489;50.948;3.114;2023-07-02T05:17:33;31.23;;;20.90;;
18720;SDS011;9489;50.948;3.114;2023-07-02T05:20:01;30.55;;;21.73;;
18720;SDS011;9489;50.948;3.114;2023-07-02T05:22:29;28.80;;;20.50;;
18720;SDS011;9489;50.948;3.114;2023-07-02T05:24:55;26.48;;;19.85;;
18720;SDS011;9489;50.948;3.114;2023-07-02T05:27:20;29.70;;;20.85;;
18720;SDS011;9489;50.948;3.114;2023-07-02T05:29:46;28.35;;;19.98;;
18720;SDS011;9489;50.948;3.114;2023-07-02T05:32:11;30.38;;;20.35;;
18720;SDS011;9489;50.948;3.114;2023-07-02T05:34:37;23.42;;;19.45;;
18720;SDS011;9489;50.948;3.114;2023-07-02T05:37:03;25.23;;;18.90;;
18720;SDS011;9489;50.948;3.114;2023-07-02T05:39:28;27.67;;;21.45;;
18720;SDS011;9489;50.948;3.114;2023-07-02T05:41:56;27.10;;;18.10;;
18720;SDS011;9489;50.948;3.114;2023-07-02T05:44:22;30.58;;;19.25;;
18720;SDS011;9489;50.948;3.114;2023-07-02T05:46:48;29.75;;;18.30;;
18720;SDS011;9489;50.948;3.114;2023-07-02T05:49:13;24.35;;;19.33;;
18720;SDS011;9489;50.948;3.114;2023-07-02T05:51:39;25.45;;;18.25;;
18720;SDS011;9489;50.948;3.114;2023-07-02T05:54:05;28.70;;;18.35;;
18720;SDS011;9489;50.948;3.114;2023-07-02T05:56:31;24.90;;;18.35;;
18720;SDS011;9489;50.948;3.114;2023-07-02T05:58:56;27.65;;;19.40;;
18720;SDS011;9489;50.948;3.114;2023-07-02T06:01:22;25.08;;;17.63;;
18720;SDS011;9489;50.948;3.114;2023-07-02T06:03:49;26.33;;;19.05;;
18720;SDS011;9489;50.948;3.114;2023-07-02T06:06:15;28.40;;;18.27;;
18720;SDS011;9489;50.948;3.114;2023-07-02T06:08:40;31.60;;;20.92;;
18720;SDS011;9489;50.948;3.114;2023-07-02T06:11:06;27.90;;;18.90;;
18720;SDS011;9489;50.948;3.114;2023-07-02T06:13:32;27.65;;;16.85;;
18720;SDS011;9489;50.948;3.114;2023-07-02T06:15:57;25.70;;;16.75;;
18720;SDS011;9489;50.948;3.114;2023-07-02T06:18:23;26.90;;;16.65;;
18720;SDS011;9489;50.948;3.114;2023-07-02T06:20:49;26.90;;;17.17;;
18720;SDS011;9489;50.948;3.114;2023-07-02T06:23:15;24.55;;;17.10;;
18720;SDS011;9489;50.948;3.114;2023-07-02T06:25:41;23.23;;;16.80;;
18720;SDS011;9489;50.948;3.114;2023-07-02T06:28:06;27.40;;;18.20;;
18720;SDS011;9489;50.948;3.114;2023-07-02T06:30:32;25.88;;;16.05;;
18720;SDS011;9489;50.948;3.114;2023-07-02T06:32:57;24.92;;;17.45;;
18720;SDS011;9489;50.948;3.114;2023-07-02T06:35:23;28.65;;;17.95;;
18720;SDS011;9489;50.948;3.114;2023-07-02T06:37:49;28.48;;;17.83;;
18720;SDS011;9489;50.948;3.114;2023-07-02T06:40:14;26.45;;;17.90;;
18720;SDS011;9489;50.948;3.114;2023-07-02T06:42:40;27.95;;;17.85;;
18720;SDS011;9489;50.948;3.114;2023-07-02T06:45:06;26.48;;;18.02;;
18720;SDS011;9489;50.948;3.114;2023-07-02T06:47:32;24.48;;;17.60;;
18720;SDS011;9489;50.948;3.114;2023-07-02T06:49:58;26.75;;;18.65;;
18720;SDS011;9489;50.948;3.114;2023-07-02T06:52:24;26.08;;;16.55;;
18720;SDS011;9489;50.948;3.114;2023-07-02T06:54:50;26.58;;;17.58;;
18720;SDS011;9489;50.948;3.114;2023-07-02T06:57:15;25.02;;;17.52;;
18720;SDS011;9489;50.948;3.114;2023-07-02T06:59:41;27.50;;;18.55;;
18720;SDS011;9489;50.948;3.114;2023-07-02T07:02:07;25.85;;;17.65;;
18720;SDS011;9489;50.948;3.114;2023-07-02T07:04:33;28.33;;;19.73;;
18720;SDS011;9489;50.948;3.114;2023-07-02T07:06:59;24.95;;;18.13;;
18720;SDS011;9489;50.948;3.114;2023-07-02T07:09:27;23.73;;;16.85;;
18720;SDS011;9489;50.948;3.114;2023-07-02T07:11:53;33.88;;;26.90;;
18720;SDS011;9489;50.948;3.114;2023-07-02T07:14:19;28.13;;;17.88;;
18720;SDS011;9489;50.948;3.114;2023-07-02T07:16:44;24.67;;;16.50;;
18720;SDS011;9489;50.948;3.114;2023-07-02T07:19:10;25.67;;;17.85;;
18720;SDS011;9489;50.948;3.114;2023-07-02T07:21:36;23.65;;;17.77;;
18720;SDS011;9489;50.948;3.114;2023-07-02T07:24:01;28.67;;;17.45;;
18720;SDS011;9489;50.948;3.114;2023-07-02T07:26:27;24.38;;;15.27;;
18720;SDS011;9489;50.948;3.114;2023-07-02T07:28:53;22.90;;;15.90;;
18720;SDS011;9489;50.948;3.114;2023-07-02T07:31:22;26.33;;;16.65;;
18720;SDS011;9489;50.948;3.114;2023-07-02T07:33:48;23.55;;;16.55;;
18720;SDS011;9489;50.948;3.114;2023-07-02T07:36:14;22.48;;;15.90;;
18720;SDS011;9489;50.948;3.114;2023-07-02T07:38:40;28.33;;;16.17;;
18720;SDS011;9489;50.948;3.114;2023-07-02T07:41:08;25.65;;;16.80;;
18720;SDS011;9489;50.948;3.114;2023-07-02T07:43:33;21.77;;;15.05;;
18720;SDS011;9489;50.948;3.114;2023-07-02T07:45:59;23.08;;;14.88;;
18720;SDS011;9489;50.948;3.114;2023-07-02T07:48:25;22.15;;;15.05;;
18720;SDS011;9489;50.948;3.114;2023-07-02T07:50:50;30.15;;;17.23;;
18720;SDS011;9489;50.948;3.114;2023-07-02T07:53:16;23.70;;;15.68;;
18720;SDS011;9489;50.948;3.114;2023-07-02T07:55:41;26.30;;;16.15;;
18720;SDS011;9489;50.948;3.114;2023-07-02T07:58:07;22.42;;;15.85;;
18720;SDS011;9489;50.948;3.114;2023-07-02T08:00:33;21.20;;;14.80;;
18720;SDS011;9489;50.948;3.114;2023-07-02T08:02:58;20.63;;;13.75;;
18720;SDS011;9489;50.948;3.114;2023-07-02T08:05:25;18.58;;;12.88;;
18720;SDS011;9489;50.948;3.114;2023-07-02T08:07:51;18.10;;;12.75;;
18720;SDS011;9489;50.948;3.114;2023-07-02T08:10:18;21.75;;;14.60;;
18720;SDS011;9489;50.948;3.114;2023-07-02T08:12:44;21.75;;;13.75;;
18720;SDS011;9489;50.948;3.114;2023-07-02T08:15:12;21.65;;;14.10;;
18720;SDS011;9489;50.948;3.114;2023-07-02T08:17:38;18.98;;;13.02;;
18720;SDS011;9489;50.948;3.114;2023-07-02T08:20:03;21.23;;;13.13;;
18720;SDS011;9489;50.948;3.114;2023-07-02T08:22:30;17.95;;;12.13;;
18720;SDS011;9489;50.948;3.114;2023-07-02T08:24:55;20.65;;;12.70;;
18720;SDS011;9489;50.948;3.114;2023-07-02T08:27:21;17.02;;;12.18;;
18720;SDS011;9489;50.948;3.114;2023-07-02T08:29:48;19.48;;;11.98;;
18720;SDS011;9489;50.948;3.114;2023-07-02T08:32:14;19.33;;;12.73;;
18720;SDS011;9489;50.948;3.114;2023-07-02T08:34:40;18.88;;;11.65;;
18720;SDS011;9489;50.948;3.114;2023-07-02T08:37:06;19.58;;;11.15;;
18720;SDS011;9489;50.948;3.114;2023-07-02T08:39:31;15.57;;;9.25;;
18720;SDS011;9489;50.948;3.114;2023-07-02T08:41:57;13.73;;;8.35;;
18720;SDS011;9489;50.948;3.114;2023-07-02T08:44:23;13.00;;;8.65;;
18720;SDS011;9489;50.948;3.114;2023-07-02T08:46:49;13.70;;;8.82;;
18720;SDS011;9489;50.948;3.114;2023-07-02T08:49:16;14.25;;;8.38;;
18720;SDS011;9489;50.948;3.114;2023-07-02T08:51:45;10.48;;;8.10;;
18720;SDS011;9489;50.948;3.114;2023-07-02T08:54:11;13.00;;;8.23;;
18720;SDS011;9489;50.948;3.114;2023-07-02T08:56:38;10.40;;;7.85;;
18720;SDS011;9489;50.948;3.114;2023-07-02T08:59:06;12.30;;;7.28;;
18720;SDS011;9489;50.948;3.114;2023-07-02T09:01:32;11.73;;;7.40;;
18720;SDS011;9489;50.948;3.114;2023-07-02T09:03:58;11.20;;;6.78;;
18720;SDS011;9489;50.948;3.114;2023-07-02T09:06:27;12.48;;;7.32;;
18720;SDS011;9489;50.948;3.114;2023-07-02T09:08:53;8.75;;;6.93;;
18720;SDS011;9489;50.948;3.114;2023-07-02T09:11:28;12.25;;;7.72;;
18720;SDS011;9489;50.948;3.114;2023-07-02T09:13:54;11.13;;;7.35;;
18720;SDS011;9489;50.948;3.114;2023-07-02T09:16:28;9.88;;;6.63;;
18720;SDS011;9489;50.948;3.114;2023-07-02T09:19:06;11.30;;;7.97;;
18720;SDS011;9489;50.948;3.114;2023-07-02T09:26:42;10.80;;;7.78;;
18720;SDS011;9489;50.948;3.114;2023-07-02T09:29:16;12.48;;;8.35;;
18720;SDS011;9489;50.948;3.114;2023-07-02T09:31:49;11.57;;;8.52;;
18720;SDS011;9489;50.948;3.114;2023-07-02T09:34:15;13.65;;;8.82;;
18720;SDS011;9489;50.948;3.114;2023-07-02T09:36:41;14.00;;;8.82;;
18720;SDS011;9489;50.948;3.114;2023-07-02T09:39:12;13.68;;;9.38;;
18720;SDS011;9489;50.948;3.114;2023-07-02T09:41:42;14.30;;;8.93;;
18720;SDS011;9489;50.948;3.114;2023-07-02T09:44:08;14.48;;;9.55;;
18720;SDS011;9489;50.948;3.114;2023-07-02T09:46:40;14.35;;;8.93;;
18720;SDS011;9489;50.948;3.114;2023-07-02T09:49:11;11.80;;;9.27;;
18720;SDS011;9489;50.948;3.114;2023-07-02T09:51:40;12.95;;;8.73;;
18720;SDS011;9489;50.948;3.114;2023-07-02T09:54:06;13.48;;;9.40;;
18720;SDS011;9489;50.948;3.114;2023-07-02T09:56:32;12.55;;;9.18;;
18720;SDS011;9489;50.948;3.114;2023-07-02T09:58:58;12.45;;;9.23;;
18720;SDS011;9489;50.948;3.114;2023-07-02T10:01:24;13.00;;;9.45;;
18720;SDS011;9489;50.948;3.114;2023-07-02T10:03:50;12.20;;;9.30;;
18720;SDS011;9489;50.948;3.114;2023-07-02T10:06:15;12.00;;;8.68;;
18720;SDS011;9489;50.948;3.114;2023-07-02T10:08:51;12.30;;;9.43;;
18720;SDS011;9489;50.948;3.114;2023-07-02T10:11:18;11.35;;;8.73;;
18720;SDS011;9489;50.948;3.114;2023-07-02T10:13:44;13.48;;;8.43;;
18720;SDS011;9489;50.948;3.114;2023-07-02T10:16:09;13.98;;;9.30;;
18720;SDS011;9489;50.948;3.114;2023-07-02T10:18:35;13.15;;;9.55;;
18720;SDS011;9489;50.948;3.114;2023-07-02T10:21:12;12.20;;;8.35;;
18720;SDS011;9489;50.948;3.114;2023-07-02T10:23:42;9.85;;;7.78;;
18720;SDS011;9489;50.948;3.114;2023-07-02T10:28:40;10.40;;;8.20;;
18720;SDS011;9489;50.948;3.114;2023-07-02T10:31:27;10.52;;;8.20;;
18720;SDS011;9489;50.948;3.114;2023-07-02T10:33:52;10.68;;;8.52;;
18720;SDS011;9489;50.948;3.114;2023-07-02T10:36:21;11.48;;;8.25;;
18720;SDS011;9489;50.948;3.114;2023-07-02T10:38:49;12.02;;;7.85;;
18720;SDS011;9489;50.948;3.114;2023-07-02T10:41:25;9.90;;;7.45;;
18720;SDS011;9489;50.948;3.114;2023-07-02T10:43:52;11.30;;;7.85;;
18720;SDS011;9489;50.948;3.114;2023-07-02T10:46:21;9.85;;;7.97;;
18720;SDS011;9489;50.948;3.114;2023-07-02T10:48:53;11.07;;;7.95;;
18720;SDS011;9489;50.948;3.114;2023-07-02T10:51:19;13.63;;;8.68;;
18720;SDS011;9489;50.948;3.114;2023-07-02T10:53:46;11.80;;;8.13;;
18720;SDS011;9489;50.948;3.114;2023-07-02T10:56:23;12.43;;;7.60;;
18720;SDS011;9489;50.948;3.114;2023-07-02T10:58:49;11.13;;;9.45;;
18720;SDS011;9489;50.948;3.114;2023-07-02T11:01:26;10.77;;;7.28;;
18720;SDS011;9489;50.948;3.114;2023-07-02T11:03:57;10.05;;;7.55;;
18720;SDS011;9489;50.948;3.114;2023-07-02T11:06:24;11.43;;;8.15;;
18720;SDS011;9489;50.948;3.114;2023-07-02T11:08:51;15.10;;;7.18;;
18720;SDS011;9489;50.948;3.114;2023-07-02T11:11:17;10.93;;;7.78;;
18720;SDS011;9489;50.948;3.114;2023-07-02T11:13:45;9.82;;;7.70;;
18720;SDS011;9489;50.948;3.114;2023-07-02T11:18:54;10.77;;;7.13;;
18720;SDS011;9489;50.948;3.114;2023-07-02T11:21:31;8.65;;;6.80;;
18720;SDS011;9489;50.948;3.114;2023-07-02T11:24:03;8.20;;;6.93;;
18720;SDS011;9489;50.948;3.114;2023-07-02T11:26:41;10.90;;;8.40;;
18720;SDS011;9489;50.948;3.114;2023-07-02T11:29:11;10.02;;;7.75;;
18720;SDS011;9489;50.948;3.114;2023-07-02T11:31:37;10.38;;;6.85;;
18720;SDS011;9489;50.948;3.114;2023-07-02T11:34:24;8.25;;;6.78;;
18720;SDS011;9489;50.948;3.114;2023-07-02T11:36:49;10.57;;;7.97;;
18720;SDS011;9489;50.948;3.114;2023-07-02T11:39:15;9.20;;;7.63;;
18720;SDS011;9489;50.948;3.114;2023-07-02T11:41:42;9.50;;;7.80;;
18720;SDS011;9489;50.948;3.114;2023-07-02T11:44:09;10.43;;;7.90;;
18720;SDS011;9489;50.948;3.114;2023-07-02T11:46:35;9.32;;;6.57;;
18720;SDS011;9489;50.948;3.114;2023-07-02T11:49:01;8.95;;;6.93;;
18720;SDS011;9489;50.948;3.114;2023-07-02T11:51:29;10.98;;;7.20;;
18720;SDS011;9489;50.948;3.114;2023-07-02T11:53:56;10.25;;;8.00;;
18720;SDS011;9489;50.948;3.114;2023-07-02T11:56:22;10.70;;;6.90;;
18720;SDS011;9489;50.948;3.114;2023-07-02T11:58:48;10.35;;;7.07;;
18720;SDS011;9489;50.948;3.114;2023-07-02T12:01:14;10.85;;;6.82;;
18720;SDS011;9489;50.948;3.114;2023-07-02T12:03:39;11.13;;;7.18;;
18720;SDS011;9489;50.948;3.114;2023-07-02T12:06:05;9.98;;;6.70;;
18720;SDS011;9489;50.948;3.114;2023-07-02T12:08:31;10.52;;;7.85;;
18720;SDS011;9489;50.948;3.114;2023-07-02T12:10:56;10.60;;;7.50;;
18720;SDS011;9489;50.948;3.114;2023-07-02T12:13:22;12.25;;;7.28;;
18720;SDS011;9489;50.948;3.114;2023-07-02T12:15:47;9.38;;;7.50;;
18720;SDS011;9489;50.948;3.114;2023-07-02T12:18:14;8.88;;;6.90;;
18720;SDS011;9489;50.948;3.114;2023-07-02T12:20:40;12.88;;;7.03;;
18720;SDS011;9489;50.948;3.114;2023-07-02T12:23:07;9.38;;;6.88;;
18720;SDS011;9489;50.948;3.114;2023-07-02T12:25:32;9.20;;;6.57;;
18720;SDS011;9489;50.948;3.114;2023-07-02T12:27:58;10.27;;;7.40;;
18720;SDS011;9489;50.948;3.114;2023-07-02T12:30:24;11.45;;;7.72;;
18720;SDS011;9489;50.948;3.114;2023-07-02T12:32:49;11.60;;;7.00;;
18720;SDS011;9489;50.948;3.114;2023-07-02T12:35:15;8.95;;;6.43;;
18720;SDS011;9489;50.948;3.114;2023-07-02T12:37:44;9.48;;;6.85;;
18720;SDS011;9489;50.948;3.114;2023-07-02T12:40:15;9.77;;;7.07;;
18720;SDS011;9489;50.948;3.114;2023-07-02T12:42:41;10.75;;;7.18;;
18720;SDS011;9489;50.948;3.114;2023-07-02T12:45:07;11.52;;;7.28;;
18720;SDS011;9489;50.948;3.114;2023-07-02T12:47:34;9.68;;;6.78;;
18720;SDS011;9489;50.948;3.114;2023-07-02T12:49:59;12.60;;;6.97;;
18720;SDS011;9489;50.948;3.114;2023-07-02T12:52:25;11.20;;;7.45;;
18720;SDS011;9489;50.948;3.114;2023-07-02T12:54:51;9.55;;;7.28;;
18720;SDS011;9489;50.948;3.114;2023-07-02T12:57:17;11.02;;;7.35;;
18720;SDS011;9489;50.948;3.114;2023-07-02T12:59:43;11.75;;;8.02;;
18720;SDS011;9489;50.948;3.114;2023-07-02T13:02:09;11.43;;;7.70;;
18720;SDS011;9489;50.948;3.114;2023-07-02T13:04:35;15.18;;;8.50;;
18720;SDS011;9489;50.948;3.114;2023-07-02T13:07:01;14.05;;;9.20;;
18720;SDS011;9489;50.948;3.114;2023-07-02T13:09:27;13.48;;;8.60;;
18720;SDS011;9489;50.948;3.114;2023-07-02T13:11:52;12.38;;;8.32;;
18720;SDS011;9489;50.948;3.114;2023-07-02T13:14:18;15.00;;;9.40;;
18720;SDS011;9489;50.948;3.114;2023-07-02T13:16:44;12.82;;;8.32;;
18720;SDS011;9489;50.948;3.114;2023-07-02T13:19:09;13.93;;;9.15;;
18720;SDS011;9489;50.948;3.114;2023-07-02T13:21:36;13.35;;;8.30;;
18720;SDS011;9489;50.948;3.114;2023-07-02T13:24:02;15.00;;;8.55;;
18720;SDS011;9489;50.948;3.114;2023-07-02T13:26:27;12.93;;;8.52;;
18720;SDS011;9489;50.948;3.114;2023-07-02T13:28:53;11.90;;;8.55;;
18720;SDS011;9489;50.948;3.114;2023-07-02T13:31:19;14.30;;;8.98;;
18720;SDS011;9489;50.948;3.114;2023-07-02T13:33:44;15.15;;;8.60;;
18720;SDS011;9489;50.948;3.114;2023-07-02T13:36:11;10.40;;;7.88;;
18720;SDS011;9489;50.948;3.114;2023-07-02T13:38:37;12.68;;;8.02;;
18720;SDS011;9489;50.948;3.114;2023-07-02T13:41:03;14.80;;;8.48;;
18720;SDS011;9489;50.948;3.114;2023-07-02T13:43:29;13.30;;;7.47;;
18720;SDS011;9489;50.948;3.114;2023-07-02T13:45:55;13.27;;;7.63;;
18720;SDS011;9489;50.948;3.114;2023-07-02T13:48:20;10.98;;;6.65;;
18720;SDS011;9489;50.948;3.114;2023-07-02T13:50:46;10.75;;;7.22;;
18720;SDS011;9489;50.948;3.114;2023-07-02T13:53:12;11.82;;;7.55;;
18720;SDS011;9489;50.948;3.114;2023-07-02T13:55:37;13.40;;;7.13;;
18720;SDS011;9489;50.948;3.114;2023-07-02T13:58:03;10.45;;;7.45;;
18720;SDS011;9489;50.948;3.114;2023-07-02T14:00:29;13.40;;;8.07;;
18720;SDS011;9489;50.948;3.114;2023-07-02T14:02:55;14.77;;;8.02;;
18720;SDS011;9489;50.948;3.114;2023-07-02T14:05:20;12.15;;;7.55;;
18720;SDS011;9489;50.948;3.114;2023-07-02T14:07:46;15.40;;;7.95;;
18720;SDS011;9489;50.948;3.114;2023-07-02T14:10:12;14.40;;;7.47;;
18720;SDS011;9489;50.948;3.114;2023-07-02T14:12:39;15.77;;;7.50;;
18720;SDS011;9489;50.948;3.114;2023-07-02T14:15:05;13.23;;;7.68;;
18720;SDS011;9489;50.948;3.114;2023-07-02T14:17:31;10.30;;;6.22;;
18720;SDS011;9489;50.948;3.114;2023-07-02T14:19:57;13.13;;;6.63;;
18720;SDS011;9489;50.948;3.114;2023-07-02T14:22:23;10.90;;;6.38;;
18720;SDS011;9489;50.948;3.114;2023-07-02T14:24:48;14.30;;;6.45;;
18720;SDS011;9489;50.948;3.114;2023-07-02T14:27:14;13.73;;;6.60;;
18720;SDS011;9489;50.948;3.114;2023-07-02T14:29:40;13.55;;;6.57;;
18720;SDS011;9489;50.948;3.114;2023-07-02T14:32:05;10.40;;;6.82;;
18720;SDS011;9489;50.948;3.114;2023-07-02T14:34:32;9.68;;;5.95;;
18720;SDS011;9489;50.948;3.114;2023-07-02T14:36:57;12.20;;;6.00;;
18720;SDS011;9489;50.948;3.114;2023-07-02T14:39:23;13.77;;;6.50;;
18720;SDS011;9489;50.948;3.114;2023-07-02T14:41:49;11.70;;;5.95;;
18720;SDS011;9489;50.948;3.114;2023-07-02T14:44:15;11.98;;;6.28;;
18720;SDS011;9489;50.948;3.114;2023-07-02T14:46:40;10.88;;;6.20;;
18720;SDS011;9489;50.948;3.114;2023-07-02T14:49:07;9.18;;;6.28;;